createdAt,value
2018-05-26T00:02:06.152Z,99.90
2018-05-26T00:04:34.574Z,99.90
2018-05-26T00:07:02.916Z,99.90
2018-05-26T00:09:31.273Z,99.90
2018-05-26T00:11:59.593Z,99.90
2018-05-26T00:14:27.931Z,99.90
2018-05-26T00:16:56.332Z,99.90
2018-05-26T00:19:24.788Z,99.90
2018-05-26T00:21:53.179Z,99.90
2018-05-26T00:24:22.351Z,99.90
2018-05-26T00:26:51.501Z,99.90
2018-05-26T00:29:19.863Z,99.90
2018-05-26T00:31:48.989Z,99.90
2018-05-26T00:34:17.397Z,99.90
2018-05-26T00:36:45.758Z,99.90
2018-05-26T00:39:14.178Z,99.90
2018-05-26T00:41:42.560Z,99.90
2018-05-26T00:44:10.896Z,99.90
2018-05-26T00:46:39.303Z,99.90
2018-05-26T00:49:08.469Z,99.90
2018-05-26T00:51:36.832Z,99.90
2018-05-26T00:54:05.225Z,99.90
2018-05-26T00:56:33.539Z,99.90
2018-05-26T00:59:01.956Z,99.90
2018-05-26T01:01:30.317Z,99.90
2018-05-26T01:03:58.677Z,99.90
2018-05-26T01:06:27.801Z,99.90
2018-05-26T01:08:56.195Z,99.90
2018-05-26T01:11:24.655Z,99.90
2018-05-26T01:13:53.060Z,99.90
2018-05-26T01:16:21.395Z,99.90
2018-05-26T01:18:49.727Z,99.90
2018-05-26T01:21:18.141Z,99.90
2018-05-26T01:23:46.556Z,99.90
2018-05-26T01:26:15.288Z,99.90
2018-05-26T01:28:43.616Z,99.90
2018-05-26T01:31:12.776Z,99.90
2018-05-26T01:33:41.141Z,99.90
2018-05-26T01:36:09.549Z,99.90
2018-05-26T01:38:37.955Z,99.90
2018-05-26T01:41:06.310Z,99.90
2018-05-26T01:43:34.709Z,99.90
2018-05-26T01:46:03.088Z,99.90
2018-05-26T01:48:31.495Z,99.90
2018-05-26T01:50:59.827Z,99.90
2018-05-26T01:53:28.203Z,99.90
2018-05-26T01:55:56.594Z,99.90
2018-05-26T01:58:25.035Z,99.90
2018-05-26T02:00:53.378Z,99.90
2018-05-26T02:03:21.800Z,99.90
2018-05-26T02:05:50.138Z,99.90
2018-05-26T02:08:18.489Z,99.90
2018-05-26T02:10:47.600Z,99.90
2018-05-26T02:13:16.727Z,99.90
2018-05-26T02:15:45.110Z,99.90
2018-05-26T02:18:13.448Z,99.90
2018-05-26T02:20:41.844Z,99.90
2018-05-26T02:23:10.174Z,99.90
2018-05-26T02:25:39.348Z,99.90
2018-05-26T02:28:07.667Z,99.90
2018-05-26T02:30:36.803Z,99.90
2018-05-26T02:33:05.194Z,99.90
2018-05-26T02:35:33.582Z,99.90
2018-05-26T02:38:01.990Z,99.90
2018-05-26T02:40:30.377Z,99.90
2018-05-26T02:42:58.804Z,99.90
2018-05-26T02:45:27.199Z,99.90
2018-05-26T02:47:55.553Z,99.90
2018-05-26T02:50:23.944Z,99.90
2018-05-26T02:52:52.313Z,99.90
2018-05-26T02:55:21.481Z,99.90
2018-05-26T02:57:49.795Z,99.90
2018-05-26T03:00:18.923Z,99.90
2018-05-26T03:02:47.299Z,99.90
2018-05-26T03:05:21.203Z,99.90
2018-05-26T03:07:54.959Z,99.90
2018-05-26T03:10:28.931Z,99.90
2018-05-26T03:13:02.883Z,99.90
2018-05-26T03:15:31.232Z,99.90
2018-05-26T03:18:01.437Z,99.90
2018-05-26T03:20:29.855Z,99.90
2018-05-26T03:22:58.179Z,99.90
2018-05-26T03:25:26.524Z,99.90
2018-05-26T03:27:54.879Z,99.90
2018-05-26T03:30:24.044Z,99.90
2018-05-26T03:32:52.429Z,99.90
2018-05-26T03:35:20.828Z,99.90
2018-05-26T03:37:49.235Z,99.90
2018-05-26T03:40:17.579Z,99.90
2018-05-26T03:42:46.255Z,99.90
2018-05-26T03:45:15.419Z,99.90
2018-05-26T03:47:43.819Z,99.90
2018-05-26T03:50:12.168Z,99.90
2018-05-26T03:52:41.279Z,99.90
2018-05-26T03:58:42.463Z,99.90
2018-05-26T04:01:11.643Z,99.90
2018-05-26T04:03:40.048Z,99.90
2018-05-26T04:06:09.551Z,99.90
2018-05-26T04:08:37.959Z,99.90
2018-05-26T04:11:07.130Z,99.90
2018-05-26T04:13:35.472Z,99.90
2018-05-26T04:16:04.669Z,99.90
2018-05-26T04:18:33.836Z,99.90
2018-05-26T04:21:02.172Z,99.90
2018-05-26T04:23:30.556Z,99.90
2018-05-26T04:25:58.973Z,99.90
2018-05-26T04:28:28.131Z,99.90
2018-05-26T04:30:56.483Z,99.90
2018-05-26T04:33:24.834Z,99.90
2018-05-26T04:35:53.261Z,99.90
2018-05-26T04:38:22.415Z,99.90
2018-05-26T04:40:50.821Z,99.90
2018-05-26T04:43:19.170Z,99.90
2018-05-26T04:45:47.645Z,99.90
2018-05-26T04:48:16.276Z,99.90
2018-05-26T04:50:45.464Z,99.90
2018-05-26T04:53:13.863Z,99.90
2018-05-26T04:55:42.194Z,99.90
2018-05-26T04:58:10.572Z,99.90
2018-05-26T05:00:38.958Z,99.90
2018-05-26T05:03:07.323Z,99.90
2018-05-26T05:05:36.463Z,99.90
2018-05-26T05:08:05.538Z,99.90
2018-05-26T05:10:33.899Z,99.90
2018-05-26T05:13:02.289Z,99.90
2018-05-26T05:15:30.665Z,99.90
2018-05-26T05:17:59.019Z,99.90
2018-05-26T05:20:27.451Z,99.90
2018-05-26T05:23:09.849Z,99.90
2018-05-26T05:25:38.469Z,99.90
2018-05-26T05:28:06.846Z,99.90
2018-05-26T05:30:35.993Z,99.90
2018-05-26T05:33:04.407Z,99.90
2018-05-26T05:35:33.931Z,99.90
2018-05-26T05:38:02.415Z,99.90
2018-05-26T05:40:31.071Z,99.90
2018-05-26T05:43:00.219Z,99.90
2018-05-26T05:45:28.810Z,99.90
2018-05-26T05:47:57.284Z,99.90
2018-05-26T05:50:25.720Z,99.90
2018-05-26T05:52:54.146Z,99.90
2018-05-26T05:55:22.554Z,99.90
2018-05-26T05:57:50.967Z,99.90
2018-05-26T06:00:19.333Z,99.90
2018-05-26T06:02:47.764Z,99.90
2018-05-26T06:05:16.147Z,99.90
2018-05-26T06:07:44.483Z,99.90
2018-05-26T06:10:12.876Z,99.90
2018-05-26T06:12:41.243Z,99.90
2018-05-26T06:15:09.690Z,99.90
2018-05-26T06:17:39.731Z,99.90
2018-05-26T06:20:08.136Z,99.90
2018-05-26T06:22:36.575Z,99.90
2018-05-26T06:25:05.045Z,99.90
2018-05-26T06:27:33.677Z,99.90
2018-05-26T06:30:02.401Z,99.90
2018-05-26T06:32:30.858Z,99.90
2018-05-26T06:34:59.232Z,99.90
2018-05-26T06:37:27.627Z,99.90
2018-05-26T06:39:56.039Z,99.90
2018-05-26T06:42:24.426Z,99.90
2018-05-26T06:44:52.847Z,99.90
2018-05-26T06:47:21.257Z,99.90
2018-05-26T06:49:49.667Z,99.90
2018-05-26T06:52:18.051Z,99.90
2018-05-26T06:54:46.461Z,99.90
2018-05-26T06:57:14.851Z,99.90
2018-05-26T06:59:43.220Z,99.90
2018-05-26T07:02:11.603Z,99.90
2018-05-26T07:04:40.029Z,99.90
2018-05-26T07:07:08.420Z,99.90
2018-05-26T07:09:48.038Z,99.90
2018-05-26T07:12:19.198Z,99.90
2018-05-26T07:14:47.519Z,99.90
2018-05-26T07:17:15.872Z,99.90
2018-05-26T07:19:44.235Z,99.90
2018-05-26T07:22:13.541Z,99.90
2018-05-26T07:24:41.956Z,99.90
2018-05-26T07:27:16.551Z,99.90
2018-05-26T07:29:45.129Z,99.90
2018-05-26T07:32:13.539Z,99.90
2018-05-26T07:34:41.923Z,99.90
2018-05-26T07:37:10.290Z,99.90
2018-05-26T07:39:53.445Z,99.90
2018-05-26T07:42:21.818Z,99.90
2018-05-26T07:44:50.198Z,99.90
2018-05-26T07:47:18.559Z,99.90
2018-05-26T07:49:47.389Z,99.90
2018-05-26T07:52:15.790Z,99.90
2018-05-26T07:54:44.195Z,99.90
2018-05-26T07:57:12.548Z,99.90
2018-05-26T07:59:41.978Z,99.90
2018-05-26T08:02:10.484Z,99.90
2018-05-26T08:04:38.877Z,99.90
2018-05-26T08:07:07.251Z,99.90
2018-05-26T08:09:35.574Z,99.90
2018-05-26T08:12:04.735Z,99.90
2018-05-26T08:14:33.087Z,99.90
2018-05-26T08:17:01.491Z,99.90
2018-05-26T08:19:29.916Z,99.90
2018-05-26T08:21:58.291Z,99.90
2018-05-26T08:24:26.662Z,99.90
2018-05-26T08:26:55.041Z,99.90
2018-05-26T08:29:23.397Z,99.90
2018-05-26T08:31:51.725Z,99.90
2018-05-26T08:34:20.108Z,99.70
2018-05-26T08:36:49.236Z,99.50
2018-05-26T08:39:17.774Z,98.90
2018-05-26T08:41:46.121Z,97.50
2018-05-26T08:44:14.514Z,96.80
2018-05-26T08:46:42.875Z,96.40
2018-05-26T08:49:11.252Z,95.70
2018-05-26T08:51:39.587Z,95.20
2018-05-26T08:54:10.477Z,95.80
2018-05-26T08:56:38.867Z,96.00
2018-05-26T08:59:07.243Z,95.60
2018-05-26T09:01:35.587Z,96.10
2018-05-26T09:04:04.007Z,95.30
2018-05-26T09:06:32.368Z,95.70
2018-05-26T09:09:00.716Z,94.80
2018-05-26T09:11:29.092Z,93.40
2018-05-26T09:13:57.468Z,93.20
2018-05-26T09:16:25.819Z,93.80
2018-05-26T09:18:54.161Z,94.40
2018-05-26T09:21:22.503Z,93.50
2018-05-26T09:23:50.884Z,93.50
2018-05-26T09:26:19.314Z,94.10
2018-05-26T09:28:47.726Z,93.30
2018-05-26T09:31:16.148Z,93.70
2018-05-26T09:33:44.552Z,92.80
2018-05-26T09:36:12.952Z,92.30
2018-05-26T09:38:51.147Z,92.10
2018-05-26T09:41:29.618Z,91.90
2018-05-26T09:43:58.101Z,91.10
2018-05-26T09:46:26.568Z,91.60
2018-05-26T09:48:54.967Z,91.40
2018-05-26T09:51:23.446Z,91.20
2018-05-26T09:53:52.670Z,90.70
2018-05-26T09:59:13.015Z,90.50
2018-05-26T10:01:41.445Z,90.30
2018-05-26T10:04:09.935Z,89.50
2018-05-26T10:06:38.284Z,90.30
2018-05-26T10:09:06.745Z,89.30
2018-05-26T10:11:35.262Z,88.70
2018-05-26T10:14:03.756Z,88.90
2018-05-26T10:16:32.191Z,87.30
2018-05-26T10:19:00.630Z,87.80
2018-05-26T10:21:29.003Z,85.40
2018-05-26T10:23:57.480Z,85.70
2018-05-26T10:26:25.938Z,87.20
2018-05-26T10:28:54.415Z,87.70
2018-05-26T10:31:22.818Z,88.60
2018-05-26T10:33:51.250Z,86.70
2018-05-26T10:36:19.655Z,86.20
2018-05-26T10:38:48.100Z,87.20
2018-05-26T10:41:16.566Z,86.70
2018-05-26T10:43:45.057Z,84.80
2018-05-26T10:46:25.884Z,84.30
2018-05-26T10:48:54.317Z,81.80
2018-05-26T10:51:22.768Z,84.50
2018-05-26T10:53:51.338Z,81.90
2018-05-26T10:56:19.885Z,80.10
2018-05-26T10:58:48.658Z,84.40
2018-05-26T11:01:17.135Z,83.20
2018-05-26T11:03:45.573Z,82.00
2018-05-26T11:06:14.084Z,82.50
2018-05-26T11:08:42.621Z,83.20
2018-05-26T11:14:21.297Z,81.60
2018-05-26T11:16:49.693Z,82.30
2018-05-26T11:19:18.087Z,80.20
2018-05-26T11:21:46.411Z,80.90
2018-05-26T11:24:26.665Z,82.10
2018-05-26T11:26:55.521Z,81.70
2018-05-26T11:29:23.911Z,82.50
2018-05-26T11:32:02.628Z,82.60
2018-05-26T11:34:37.664Z,83.10
2018-05-26T11:37:06.019Z,82.00
2018-05-26T11:42:57.926Z,78.70
2018-05-26T11:45:29.103Z,80.20
2018-05-26T11:47:57.443Z,79.30
2018-05-26T11:50:25.769Z,78.60
2018-05-26T11:52:54.158Z,79.60
2018-05-26T11:55:22.596Z,78.00
2018-05-26T11:57:50.980Z,78.20
2018-05-26T12:00:20.587Z,80.30
2018-05-26T12:02:49.065Z,76.70
2018-05-26T12:05:17.725Z,76.90
2018-05-26T12:07:55.554Z,79.00
2018-05-26T12:10:24.531Z,77.60
2018-05-26T12:12:52.947Z,77.20
2018-05-26T12:15:21.284Z,77.60
2018-05-26T12:17:49.683Z,80.30
2018-05-26T12:20:18.260Z,80.60
2018-05-26T12:22:46.620Z,80.30
2018-05-26T12:25:15.064Z,81.60
2018-05-26T12:27:43.443Z,80.80
2018-05-26T12:30:11.809Z,81.10
2018-05-26T12:32:40.147Z,80.20
2018-05-26T12:38:18.675Z,80.60
2018-05-26T12:40:47.039Z,80.90
2018-05-26T12:43:15.459Z,79.30
2018-05-26T12:45:43.793Z,80.80
2018-05-26T12:48:12.984Z,79.70
2018-05-26T12:50:41.349Z,79.70
2018-05-26T12:53:09.712Z,80.50
2018-05-26T12:55:38.156Z,79.90
2018-05-26T12:58:06.500Z,79.50
2018-05-26T13:00:34.887Z,79.20
2018-05-26T13:03:03.277Z,77.90
2018-05-26T13:05:31.656Z,76.70
2018-05-26T13:08:00.827Z,79.30
2018-05-26T13:10:31.882Z,79.20
2018-05-26T13:13:00.393Z,78.80
2018-05-26T13:15:28.870Z,79.60
2018-05-26T13:17:57.584Z,75.10
2018-05-26T13:20:26.121Z,75.60
2018-05-26T13:22:54.523Z,76.20
2018-05-26T13:25:22.961Z,74.80
2018-05-26T13:27:51.359Z,76.90
2018-05-26T13:30:19.748Z,75.60
2018-05-26T13:32:48.102Z,76.80
2018-05-26T13:35:16.476Z,74.10
2018-05-26T13:37:44.812Z,74.30
2018-05-26T13:40:13.157Z,74.30
2018-05-26T13:42:41.533Z,75.40
2018-05-26T13:45:09.916Z,76.10
2018-05-26T13:47:38.319Z,75.80
2018-05-26T13:50:06.716Z,74.80
2018-05-26T13:52:41.697Z,73.60
2018-05-26T13:55:10.152Z,75.70
2018-05-26T13:57:38.474Z,74.80
2018-05-26T14:00:06.838Z,75.20
2018-05-26T14:02:35.256Z,73.00
2018-05-26T14:05:03.647Z,73.70
2018-05-26T14:07:32.210Z,73.70
2018-05-26T14:10:00.678Z,72.50
2018-05-26T14:12:29.454Z,73.20
2018-05-26T14:14:57.783Z,72.20
2018-05-26T14:17:26.207Z,71.10
2018-05-26T14:20:00.932Z,72.80
2018-05-26T14:22:29.341Z,72.30
2018-05-26T14:25:01.109Z,72.20
2018-05-26T14:27:29.741Z,72.80
2018-05-26T14:29:59.475Z,71.00
2018-05-26T14:32:27.881Z,70.40
2018-05-26T14:34:56.296Z,73.40
2018-05-26T14:37:24.692Z,70.80
2018-05-26T14:39:53.040Z,71.40
2018-05-26T14:42:21.360Z,71.00
2018-05-26T14:44:49.786Z,71.90
2018-05-26T14:47:18.119Z,72.60
2018-05-26T14:49:46.498Z,72.00
2018-05-26T14:52:14.809Z,71.60
2018-05-26T14:54:43.188Z,70.40
2018-05-26T14:57:11.514Z,74.40
2018-05-26T14:59:39.864Z,72.70
2018-05-26T15:02:08.167Z,71.90
2018-05-26T15:04:36.563Z,72.30
2018-05-26T15:07:04.954Z,72.20
2018-05-26T15:09:33.345Z,72.10
2018-05-26T15:12:01.956Z,71.50
2018-05-26T15:14:30.286Z,71.60
2018-05-26T15:16:58.642Z,70.20
2018-05-26T15:22:36.557Z,72.50
2018-05-26T15:25:04.931Z,71.30
2018-05-26T15:27:33.292Z,71.10
2018-05-26T15:30:01.627Z,69.20
2018-05-26T15:32:29.960Z,70.40
2018-05-26T15:34:58.395Z,72.00
2018-05-26T15:37:26.776Z,71.20
2018-05-26T15:39:55.875Z,72.50
2018-05-26T15:42:24.250Z,72.50
2018-05-26T15:44:52.581Z,72.50
2018-05-26T15:47:20.935Z,72.00
2018-05-26T15:49:49.302Z,71.50
2018-05-26T15:52:18.375Z,70.60
2018-05-26T15:54:46.826Z,70.30
2018-05-26T15:57:15.203Z,70.50
2018-05-26T15:59:43.544Z,70.80
2018-05-26T16:02:11.883Z,71.40
2018-05-26T16:04:40.215Z,68.50
2018-05-26T16:07:08.619Z,69.40
2018-05-26T16:09:36.993Z,70.40
2018-05-26T16:12:05.295Z,69.80
2018-05-26T16:14:33.611Z,70.50
2018-05-26T16:17:01.946Z,71.40
2018-05-26T16:19:30.252Z,70.40
2018-05-26T16:21:58.623Z,70.20
2018-05-26T16:24:26.989Z,69.90
2018-05-26T16:26:56.431Z,70.70
2018-05-26T16:29:24.859Z,70.00
2018-05-26T16:31:53.959Z,70.00
2018-05-26T16:34:22.297Z,70.00
2018-05-26T16:36:50.630Z,70.10
2018-05-26T16:39:18.952Z,69.90
2018-05-26T16:41:47.366Z,71.10
2018-05-26T16:44:15.696Z,71.50
2018-05-26T16:46:44.069Z,71.80
2018-05-26T16:49:12.407Z,71.20
2018-05-26T16:51:40.733Z,70.00
2018-05-26T16:54:09.091Z,71.50
2018-05-26T16:56:37.405Z,70.60
2018-05-26T16:59:08.262Z,71.70
2018-05-26T17:01:36.584Z,71.10
2018-05-26T17:04:04.929Z,71.10
2018-05-26T17:06:33.266Z,70.70
2018-05-26T17:09:01.612Z,71.00
2018-05-26T17:11:29.972Z,72.00
2018-05-26T17:13:58.289Z,71.00
2018-05-26T17:16:26.669Z,72.70
2018-05-26T17:18:55.060Z,72.70
2018-05-26T17:21:23.532Z,70.40
2018-05-26T17:23:52.620Z,72.00
2018-05-26T17:26:20.998Z,72.10
2018-05-26T17:28:49.354Z,71.20
2018-05-26T17:31:17.683Z,72.90
2018-05-26T17:33:46.032Z,72.90
2018-05-26T17:36:14.861Z,71.30
2018-05-26T17:38:43.222Z,73.10
2018-05-26T17:41:11.541Z,73.80
2018-05-26T17:43:39.861Z,73.10
2018-05-26T17:46:08.267Z,72.90
2018-05-26T17:48:36.670Z,73.90
2018-05-26T17:51:04.997Z,74.50
2018-05-26T17:53:33.333Z,74.20
2018-05-26T17:56:01.761Z,74.20
2018-05-26T17:58:30.097Z,73.20
2018-05-26T18:00:58.431Z,74.00
2018-05-26T18:03:26.770Z,74.00
2018-05-26T18:05:55.087Z,73.20
2018-05-26T18:08:23.463Z,75.00
2018-05-26T18:10:53.113Z,75.40
2018-05-26T18:13:21.507Z,75.40
2018-05-26T18:15:49.895Z,74.50
2018-05-26T18:18:18.389Z,75.00
2018-05-26T18:20:46.799Z,75.00
2018-05-26T18:23:15.124Z,74.70
2018-05-26T18:25:43.466Z,74.80
2018-05-26T18:28:11.787Z,76.00
2018-05-26T18:30:40.141Z,76.00
2018-05-26T18:33:08.462Z,75.70
2018-05-26T18:35:37.543Z,77.30
2018-05-26T18:38:05.993Z,77.20
2018-05-26T18:40:34.493Z,77.80
2018-05-26T18:43:02.831Z,76.40
2018-05-26T18:45:31.148Z,76.70
2018-05-26T18:47:59.484Z,77.70
2018-05-26T18:50:31.799Z,78.60
2018-05-26T18:53:03.091Z,79.40
2018-05-26T18:55:31.408Z,79.20
2018-05-26T18:57:59.747Z,79.30
2018-05-26T19:00:28.063Z,79.40
2018-05-26T19:02:56.415Z,78.40
2018-05-26T19:05:24.750Z,78.50
2018-05-26T19:07:53.182Z,80.00
2018-05-26T19:10:21.515Z,80.40
2018-05-26T19:12:49.904Z,79.80
2018-05-26T19:15:18.235Z,81.20
2018-05-26T19:17:46.552Z,81.60
2018-05-26T19:20:14.893Z,81.60
2018-05-26T19:22:43.216Z,81.20
2018-05-26T19:25:11.547Z,82.30
2018-05-26T19:27:40.629Z,82.70
2018-05-26T19:30:08.979Z,82.60
2018-05-26T19:32:37.295Z,83.30
2018-05-26T19:35:05.620Z,84.10
2018-05-26T19:37:33.955Z,84.30
2018-05-26T19:40:02.288Z,84.20
2018-05-26T19:42:30.622Z,84.70
2018-05-26T19:44:58.984Z,85.60
2018-05-26T19:47:27.327Z,86.20
2018-05-26T19:49:55.668Z,86.40
2018-05-26T19:52:24.000Z,86.50
2018-05-26T19:54:52.318Z,86.70
2018-05-26T19:57:20.639Z,86.70
2018-05-26T19:59:48.955Z,87.30
2018-05-26T20:02:17.270Z,87.60
2018-05-26T20:04:45.576Z,87.80
2018-05-26T20:07:13.924Z,88.20
2018-05-26T20:09:42.264Z,88.80
2018-05-26T20:12:10.642Z,88.70
2018-05-26T20:14:38.999Z,88.90
2018-05-26T20:17:07.334Z,89.10
2018-05-26T20:19:35.740Z,89.40
2018-05-26T20:22:04.083Z,89.40
2018-05-26T20:24:32.411Z,89.70
2018-05-26T20:27:00.760Z,89.40
2018-05-26T20:29:29.131Z,89.60
2018-05-26T20:31:57.508Z,90.10
2018-05-26T20:34:25.980Z,90.20
2018-05-26T20:36:54.298Z,90.30
2018-05-26T20:39:23.559Z,90.50
2018-05-26T20:41:51.926Z,90.50
2018-05-26T20:44:20.274Z,90.70
2018-05-26T20:46:48.598Z,90.60
2018-05-26T20:49:17.667Z,91.20
2018-05-26T20:51:46.044Z,91.20
2018-05-26T20:54:14.354Z,91.10
2018-05-26T20:56:42.696Z,90.90
2018-05-26T20:59:11.062Z,91.00
2018-05-26T21:01:39.395Z,91.00
2018-05-26T21:04:07.760Z,91.10
2018-05-26T21:06:36.128Z,91.40
2018-05-26T21:09:05.138Z,91.40
2018-05-26T21:11:33.462Z,91.40
2018-05-26T21:14:01.844Z,91.50
2018-05-26T21:16:30.163Z,91.60
2018-05-26T21:18:58.554Z,91.70
2018-05-26T21:21:26.911Z,91.80
2018-05-26T21:23:55.239Z,91.90
2018-05-26T21:26:23.637Z,91.70
2018-05-26T21:28:51.983Z,91.90
2018-05-26T21:31:21.135Z,91.90
2018-05-26T21:33:49.466Z,91.90
2018-05-26T21:36:17.842Z,91.70
2018-05-26T21:38:46.199Z,91.70
2018-05-26T21:41:14.533Z,92.90
2018-05-26T21:43:42.872Z,92.50
2018-05-26T21:46:11.999Z,93.80
2018-05-26T21:48:40.319Z,93.80
2018-05-26T21:51:08.644Z,93.70
2018-05-26T21:53:36.997Z,93.60
2018-05-26T21:56:05.374Z,94.00
2018-05-26T21:58:33.699Z,94.40
2018-05-26T22:01:02.019Z,94.40
2018-05-26T22:03:31.167Z,95.20
2018-05-26T22:05:59.488Z,95.20
2018-05-26T22:08:27.823Z,95.30
2018-05-26T22:10:56.907Z,95.50
2018-05-26T22:13:25.271Z,95.50
2018-05-26T22:15:53.657Z,95.60
2018-05-26T22:18:22.025Z,95.80
2018-05-26T22:20:50.333Z,96.10
2018-05-26T22:23:18.677Z,96.60
2018-05-26T22:25:47.003Z,96.80
2018-05-26T22:28:15.347Z,96.80
2018-05-26T22:30:43.686Z,96.90
2018-05-26T22:33:12.015Z,97.10
2018-05-26T22:35:40.390Z,97.00
2018-05-26T22:38:08.723Z,97.30
2018-05-26T22:40:37.039Z,97.60
2018-05-26T22:43:05.376Z,97.80
2018-05-26T22:45:33.725Z,98.00
2018-05-26T22:48:02.055Z,98.10
2018-05-26T22:50:30.379Z,97.80
2018-05-26T22:52:58.716Z,97.70
2018-05-26T22:55:27.058Z,97.50
2018-05-26T22:57:55.428Z,98.10
2018-05-26T23:00:27.643Z,98.90
2018-05-26T23:02:56.043Z,98.80
2018-05-26T23:05:24.367Z,99.50
2018-05-26T23:07:52.679Z,98.60
2018-05-26T23:10:21.072Z,98.90
2018-05-26T23:12:50.117Z,98.30
2018-05-26T23:15:19.466Z,98.10
2018-05-26T23:17:47.803Z,98.90
2018-05-26T23:20:16.160Z,99.00
2018-05-26T23:22:44.479Z,99.30
2018-05-26T23:25:12.815Z,99.50
2018-05-26T23:27:41.183Z,99.60
2018-05-26T23:30:09.567Z,99.90
2018-05-26T23:32:37.954Z,99.40
2018-05-26T23:35:06.342Z,98.40
2018-05-26T23:37:34.730Z,98.90
2018-05-26T23:40:03.043Z,99.20
2018-05-26T23:42:31.443Z,99.90
2018-05-26T23:44:59.748Z,99.90
2018-05-26T23:47:28.120Z,99.90
2018-05-26T23:50:03.692Z,99.90
2018-05-26T23:52:32.083Z,99.90
2018-05-26T23:55:00.419Z,99.90
2018-05-26T23:57:28.787Z,99.60
2018-05-26T23:59:57.107Z,98.90
